sensor_id;sensor_type;location;lat;lon;timestamp;temperature;humidity
33255;DHT22;19623;52.482;9.762;2023-04-03T00:00:55;1.10;99.90
33255;DHT22;19623;52.482;9.762;2023-04-03T00:03:20;1.00;99.90
33255;DHT22;19623;52.482;9.762;2023-04-03T00:05:46;1.00;99.90
33255;DHT22;19623;52.482;9.762;2023-04-03T00:08:12;0.90;99.90
33255;DHT22;19623;52.482;9.762;2023-04-03T00:10:37;0.80;99.90
33255;DHT22;19623;52.482;9.762;2023-04-03T00:13:03;0.80;99.90
33255;DHT22;19623;52.482;9.762;2023-04-03T00:15:29;0.70;99.90
33255;DHT22;19623;52.482;9.762;2023-04-03T00:17:55;0.70;99.90
33255;DHT22;19623;52.482;9.762;2023-04-03T00:20:21;0.60;99.90
33255;DHT22;19623;52.482;9.762;2023-04-03T00:22:46;0.60;99.90
33255;DHT22;19623;52.482;9.762;2023-04-03T00:25:12;0.50;99.90
33255;DHT22;19623;52.482;9.762;2023-04-03T00:27:38;0.50;99.90
33255;DHT22;19623;52.482;9.762;2023-04-03T00:30:05;0.50;99.90
33255;DHT22;19623;52.482;9.762;2023-04-03T00:32:30;0.50;99.90
33255;DHT22;19623;52.482;9.762;2023-04-03T00:34:56;0.50;99.90
33255;DHT22;19623;52.482;9.762;2023-04-03T00:37:22;0.50;99.90
33255;DHT22;19623;52.482;9.762;2023-04-03T00:39:47;0.40;99.90
33255;DHT22;19623;52.482;9.762;2023-04-03T00:42:13;0.40;99.90
33255;DHT22;19623;52.482;9.762;2023-04-03T00:47:04;0.30;99.90
33255;DHT22;19623;52.482;9.762;2023-04-03T00:49:31;0.20;99.90
33255;DHT22;19623;52.482;9.762;2023-04-03T00:51:56;0.20;99.90
33255;DHT22;19623;52.482;9.762;2023-04-03T00:54:22;0.10;99.90
33255;DHT22;19623;52.482;9.762;2023-04-03T00:56:49;0.10;99.90
33255;DHT22;19623;52.482;9.762;2023-04-03T00:59:16;0.00;99.90
33255;DHT22;19623;52.482;9.762;2023-04-03T01:01:47;0.10;99.90
33255;DHT22;19623;52.482;9.762;2023-04-03T01:06:52;0.00;99.90
33255;DHT22;19623;52.482;9.762;2023-04-03T01:09:17;0.00;99.90
33255;DHT22;19623;52.482;9.762;2023-04-03T01:11:43;0.00;99.90
33255;DHT22;19623;52.482;9.762;2023-04-03T01:14:08;-0.10;99.90
33255;DHT22;19623;52.482;9.762;2023-04-03T01:16:34;-0.10;99.90
33255;DHT22;19623;52.482;9.762;2023-04-03T01:19:00;-0.20;99.90
33255;DHT22;19623;52.482;9.762;2023-04-03T01:26:54;-0.20;99.90
33255;DHT22;19623;52.482;9.762;2023-04-03T01:29:20;-0.30;99.90
33255;DHT22;19623;52.482;9.762;2023-04-03T01:31:53;-0.30;99.90
33255;DHT22;19623;52.482;9.762;2023-04-03T01:34:19;-0.30;99.90
33255;DHT22;19623;52.482;9.762;2023-04-03T01:36:44;-0.30;99.90
33255;DHT22;19623;52.482;9.762;2023-04-03T01:39:10;-0.30;99.90
33255;DHT22;19623;52.482;9.762;2023-04-03T01:41:36;-0.40;99.90
33255;DHT22;19623;52.482;9.762;2023-04-03T01:44:01;-0.30;99.90
33255;DHT22;19623;52.482;9.762;2023-04-03T01:46:27;-0.30;99.90
33255;DHT22;19623;52.482;9.762;2023-04-03T01:48:53;-0.30;99.90
33255;DHT22;19623;52.482;9.762;2023-04-03T01:51:18;-0.30;99.90
33255;DHT22;19623;52.482;9.762;2023-04-03T01:53:44;-0.30;99.90
33255;DHT22;19623;52.482;9.762;2023-04-03T01:56:09;-0.40;99.90
33255;DHT22;19623;52.482;9.762;2023-04-03T01:58:35;-0.40;99.90
33255;DHT22;19623;52.482;9.762;2023-04-03T02:01:00;-0.40;99.90
33255;DHT22;19623;52.482;9.762;2023-04-03T02:03:26;-0.40;99.90
33255;DHT22;19623;52.482;9.762;2023-04-03T02:05:52;-0.40;99.90
33255;DHT22;19623;52.482;9.762;2023-04-03T02:08:17;-0.40;99.90
33255;DHT22;19623;52.482;9.762;2023-04-03T02:10:44;-0.50;99.90
33255;DHT22;19623;52.482;9.762;2023-04-03T02:13:10;-0.50;99.90
33255;DHT22;19623;52.482;9.762;2023-04-03T02:15:37;-0.50;99.90
33255;DHT22;19623;52.482;9.762;2023-04-03T02:18:03;-0.50;99.90
33255;DHT22;19623;52.482;9.762;2023-04-03T02:20:28;-0.60;99.90
33255;DHT22;19623;52.482;9.762;2023-04-03T02:22:54;-0.50;99.90
33255;DHT22;19623;52.482;9.762;2023-04-03T02:25:19;-0.60;99.90
33255;DHT22;19623;52.482;9.762;2023-04-03T02:27:45;-0.60;99.90
33255;DHT22;19623;52.482;9.762;2023-04-03T02:30:11;-0.60;99.90
33255;DHT22;19623;52.482;9.762;2023-04-03T02:32:36;-0.60;99.90
33255;DHT22;19623;52.482;9.762;2023-04-03T02:35:02;-0.60;99.90
33255;DHT22;19623;52.482;9.762;2023-04-03T02:37:27;-0.60;99.90
33255;DHT22;19623;52.482;9.762;2023-04-03T02:39:53;-0.60;99.90
33255;DHT22;19623;52.482;9.762;2023-04-03T02:42:18;-0.60;99.90
33255;DHT22;19623;52.482;9.762;2023-04-03T02:44:44;-0.70;99.90
33255;DHT22;19623;52.482;9.762;2023-04-03T02:47:10;-0.70;99.90
33255;DHT22;19623;52.482;9.762;2023-04-03T02:49:35;-0.70;99.90
33255;DHT22;19623;52.482;9.762;2023-04-03T02:52:01;-0.70;99.90
33255;DHT22;19623;52.482;9.762;2023-04-03T02:54:26;-0.70;99.90
33255;DHT22;19623;52.482;9.762;2023-04-03T02:56:53;-0.70;99.90
33255;DHT22;19623;52.482;9.762;2023-04-03T02:59:19;-0.70;99.90
33255;DHT22;19623;52.482;9.762;2023-04-03T03:01:45;-0.70;99.90
33255;DHT22;19623;52.482;9.762;2023-04-03T03:04:11;-0.70;99.90
33255;DHT22;19623;52.482;9.762;2023-04-03T03:06:36;-0.70;99.90
33255;DHT22;19623;52.482;9.762;2023-04-03T03:09:02;-0.70;99.90
33255;DHT22;19623;52.482;9.762;2023-04-03T03:11:28;-0.80;99.90
33255;DHT22;19623;52.482;9.762;2023-04-03T03:13:54;-0.70;99.90
33255;DHT22;19623;52.482;9.762;2023-04-03T03:16:20;-0.80;99.90
33255;DHT22;19623;52.482;9.762;2023-04-03T03:18:45;-0.80;99.90
33255;DHT22;19623;52.482;9.762;2023-04-03T03:21:11;-0.90;99.90
33255;DHT22;19623;52.482;9.762;2023-04-03T03:23:36;-0.90;99.90
33255;DHT22;19623;52.482;9.762;2023-04-03T03:26:03;-0.90;99.90
33255;DHT22;19623;52.482;9.762;2023-04-03T03:28:29;-0.90;99.90
33255;DHT22;19623;52.482;9.762;2023-04-03T03:30:55;-0.90;99.90
33255;DHT22;19623;52.482;9.762;2023-04-03T03:33:21;-0.90;99.90
33255;DHT22;19623;52.482;9.762;2023-04-03T03:35:47;-1.00;99.90
33255;DHT22;19623;52.482;9.762;2023-04-03T03:38:12;-1.00;99.90
33255;DHT22;19623;52.482;9.762;2023-04-03T03:40:38;-0.90;99.90
33255;DHT22;19623;52.482;9.762;2023-04-03T03:43:03;-1.00;99.90
33255;DHT22;19623;52.482;9.762;2023-04-03T03:45:29;-0.90;99.90
33255;DHT22;19623;52.482;9.762;2023-04-03T03:47:55;-1.00;99.90
33255;DHT22;19623;52.482;9.762;2023-04-03T03:50:20;-1.00;99.90
33255;DHT22;19623;52.482;9.762;2023-04-03T03:52:46;-1.00;99.90
33255;DHT22;19623;52.482;9.762;2023-04-03T03:55:12;-1.00;99.90
33255;DHT22;19623;52.482;9.762;2023-04-03T03:57:37;-1.10;99.90
33255;DHT22;19623;52.482;9.762;2023-04-03T04:00:03;-1.10;99.90
33255;DHT22;19623;52.482;9.762;2023-04-03T04:02:29;-1.00;99.90
33255;DHT22;19623;52.482;9.762;2023-04-03T04:04:55;-1.10;99.90
33255;DHT22;19623;52.482;9.762;2023-04-03T04:07:20;-1.10;99.90
33255;DHT22;19623;52.482;9.762;2023-04-03T04:09:46;-1.10;99.90
33255;DHT22;19623;52.482;9.762;2023-04-03T04:12:12;-1.10;99.90
33255;DHT22;19623;52.482;9.762;2023-04-03T04:14:38;-1.10;99.90
33255;DHT22;19623;52.482;9.762;2023-04-03T04:17:03;-1.20;99.90
33255;DHT22;19623;52.482;9.762;2023-04-03T04:19:29;-1.20;99.90
33255;DHT22;19623;52.482;9.762;2023-04-03T04:21:55;-1.20;99.90
33255;DHT22;19623;52.482;9.762;2023-04-03T04:24:20;-1.20;99.90
33255;DHT22;19623;52.482;9.762;2023-04-03T04:26:48;-1.20;99.90
33255;DHT22;19623;52.482;9.762;2023-04-03T04:29:13;-1.30;99.90
33255;DHT22;19623;52.482;9.762;2023-04-03T04:31:39;-1.30;99.90
33255;DHT22;19623;52.482;9.762;2023-04-03T04:34:05;-1.30;99.90
33255;DHT22;19623;52.482;9.762;2023-04-03T04:36:31;-1.40;99.90
33255;DHT22;19623;52.482;9.762;2023-04-03T04:38:56;-1.40;99.90
33255;DHT22;19623;52.482;9.762;2023-04-03T04:41:23;-1.40;99.90
33255;DHT22;19623;52.482;9.762;2023-04-03T04:43:51;-1.40;99.90
33255;DHT22;19623;52.482;9.762;2023-04-03T04:46:17;-1.50;99.90
33255;DHT22;19623;52.482;9.762;2023-04-03T04:48:43;-1.50;99.90
33255;DHT22;19623;52.482;9.762;2023-04-03T04:51:09;-1.40;99.90
33255;DHT22;19623;52.482;9.762;2023-04-03T04:53:35;-1.50;99.90
33255;DHT22;19623;52.482;9.762;2023-04-03T04:56:01;-1.50;99.90
33255;DHT22;19623;52.482;9.762;2023-04-03T04:58:26;-1.50;99.90
33255;DHT22;19623;52.482;9.762;2023-04-03T05:01:02;-1.50;99.90
33255;DHT22;19623;52.482;9.762;2023-04-03T05:03:28;-1.50;99.90
33255;DHT22;19623;52.482;9.762;2023-04-03T05:05:53;-1.60;99.90
33255;DHT22;19623;52.482;9.762;2023-04-03T05:08:19;-1.60;99.90
33255;DHT22;19623;52.482;9.762;2023-04-03T05:10:45;-1.60;99.90
33255;DHT22;19623;52.482;9.762;2023-04-03T05:13:11;-1.60;99.90
33255;DHT22;19623;52.482;9.762;2023-04-03T05:15:37;-1.60;99.90
33255;DHT22;19623;52.482;9.762;2023-04-03T05:18:02;-1.60;99.90
33255;DHT22;19623;52.482;9.762;2023-04-03T05:20:28;-1.60;99.90
33255;DHT22;19623;52.482;9.762;2023-04-03T05:22:53;-1.60;99.90
33255;DHT22;19623;52.482;9.762;2023-04-03T05:25:19;-1.50;99.90
33255;DHT22;19623;52.482;9.762;2023-04-03T05:27:44;-1.50;99.90
33255;DHT22;19623;52.482;9.762;2023-04-03T05:30:10;-1.40;99.90
33255;DHT22;19623;52.482;9.762;2023-04-03T05:32:36;-1.40;99.90
33255;DHT22;19623;52.482;9.762;2023-04-03T05:35:01;-1.40;99.90
33255;DHT22;19623;52.482;9.762;2023-04-03T05:37:27;-1.40;99.90
33255;DHT22;19623;52.482;9.762;2023-04-03T05:39:53;-1.40;99.90
33255;DHT22;19623;52.482;9.762;2023-04-03T05:42:18;-1.30;99.90
33255;DHT22;19623;52.482;9.762;2023-04-03T05:44:44;-1.20;99.90
33255;DHT22;19623;52.482;9.762;2023-04-03T05:47:11;-1.20;99.90
33255;DHT22;19623;52.482;9.762;2023-04-03T05:49:36;-1.20;99.90
33255;DHT22;19623;52.482;9.762;2023-04-03T05:52:06;-1.20;99.90
33255;DHT22;19623;52.482;9.762;2023-04-03T05:54:33;-1.10;99.90
33255;DHT22;19623;52.482;9.762;2023-04-03T05:56:59;-1.10;99.90
33255;DHT22;19623;52.482;9.762;2023-04-03T05:59:25;-0.90;99.90
33255;DHT22;19623;52.482;9.762;2023-04-03T06:01:50;-0.90;99.90
33255;DHT22;19623;52.482;9.762;2023-04-03T06:04:16;-0.80;99.90
33255;DHT22;19623;52.482;9.762;2023-04-03T06:06:54;-0.70;99.90
33255;DHT22;19623;52.482;9.762;2023-04-03T06:09:21;-0.60;99.90
33255;DHT22;19623;52.482;9.762;2023-04-03T06:11:47;-0.50;99.90
33255;DHT22;19623;52.482;9.762;2023-04-03T06:14:13;-0.40;99.90
33255;DHT22;19623;52.482;9.762;2023-04-03T06:16:38;-0.40;99.90
33255;DHT22;19623;52.482;9.762;2023-04-03T06:19:04;-0.20;99.90
33255;DHT22;19623;52.482;9.762;2023-04-03T06:21:31;-0.10;99.90
33255;DHT22;19623;52.482;9.762;2023-04-03T06:23:57;0.10;99.90
33255;DHT22;19623;52.482;9.762;2023-04-03T06:26:22;0.10;99.90
33255;DHT22;19623;52.482;9.762;2023-04-03T06:28:48;0.20;99.90
33255;DHT22;19623;52.482;9.762;2023-04-03T06:31:14;0.20;99.90
33255;DHT22;19623;52.482;9.762;2023-04-03T06:33:40;0.40;99.90
33255;DHT22;19623;52.482;9.762;2023-04-03T06:36:06;0.40;99.90
33255;DHT22;19623;52.482;9.762;2023-04-03T06:38:32;0.50;99.90
33255;DHT22;19623;52.482;9.762;2023-04-03T06:40:59;0.60;99.90
33255;DHT22;19623;52.482;9.762;2023-04-03T06:43:26;0.70;99.90
33255;DHT22;19623;52.482;9.762;2023-04-03T06:45:52;0.80;99.90
33255;DHT22;19623;52.482;9.762;2023-04-03T06:48:18;0.90;99.90
33255;DHT22;19623;52.482;9.762;2023-04-03T06:50:43;1.00;99.90
33255;DHT22;19623;52.482;9.762;2023-04-03T06:53:09;1.10;99.90
33255;DHT22;19623;52.482;9.762;2023-04-03T06:55:35;1.30;99.90
33255;DHT22;19623;52.482;9.762;2023-04-03T06:58:02;1.30;99.90
33255;DHT22;19623;52.482;9.762;2023-04-03T07:00:28;1.50;99.90
33255;DHT22;19623;52.482;9.762;2023-04-03T07:02:54;1.60;99.90
33255;DHT22;19623;52.482;9.762;2023-04-03T07:05:21;1.60;99.90
33255;DHT22;19623;52.482;9.762;2023-04-03T07:07:47;1.60;99.90
33255;DHT22;19623;52.482;9.762;2023-04-03T07:10:12;1.70;99.90
33255;DHT22;19623;52.482;9.762;2023-04-03T07:12:38;1.80;99.90
33255;DHT22;19623;52.482;9.762;2023-04-03T07:15:04;1.80;99.90
33255;DHT22;19623;52.482;9.762;2023-04-03T07:17:30;1.90;99.90
33255;DHT22;19623;52.482;9.762;2023-04-03T07:19:56;1.90;99.90
33255;DHT22;19623;52.482;9.762;2023-04-03T07:22:22;2.00;99.90
33255;DHT22;19623;52.482;9.762;2023-04-03T07:24:47;2.10;99.90
33255;DHT22;19623;52.482;9.762;2023-04-03T07:27:13;2.20;99.90
33255;DHT22;19623;52.482;9.762;2023-04-03T07:29:38;2.40;99.90
33255;DHT22;19623;52.482;9.762;2023-04-03T07:32:05;2.40;99.90
33255;DHT22;19623;52.482;9.762;2023-04-03T07:34:32;2.50;99.90
33255;DHT22;19623;52.482;9.762;2023-04-03T07:36:58;2.70;99.90
33255;DHT22;19623;52.482;9.762;2023-04-03T07:39:23;2.80;99.90
33255;DHT22;19623;52.482;9.762;2023-04-03T07:41:49;2.80;99.90
33255;DHT22;19623;52.482;9.762;2023-04-03T07:44:15;2.90;99.90
33255;DHT22;19623;52.482;9.762;2023-04-03T07:46:40;3.10;99.90
33255;DHT22;19623;52.482;9.762;2023-04-03T07:49:06;3.30;99.90
33255;DHT22;19623;52.482;9.762;2023-04-03T07:51:32;3.40;99.90
33255;DHT22;19623;52.482;9.762;2023-04-03T07:53:57;3.60;99.90
33255;DHT22;19623;52.482;9.762;2023-04-03T07:56:23;3.60;99.90
33255;DHT22;19623;52.482;9.762;2023-04-03T07:58:50;3.50;99.90
33255;DHT22;19623;52.482;9.762;2023-04-03T08:01:16;3.80;99.90
33255;DHT22;19623;52.482;9.762;2023-04-03T08:03:41;4.00;99.90
33255;DHT22;19623;52.482;9.762;2023-04-03T08:06:07;4.00;99.90
33255;DHT22;19623;52.482;9.762;2023-04-03T08:08:33;4.00;99.90
33255;DHT22;19623;52.482;9.762;2023-04-03T08:11:00;4.00;99.90
33255;DHT22;19623;52.482;9.762;2023-04-03T08:13:28;3.90;99.90
33255;DHT22;19623;52.482;9.762;2023-04-03T08:15:54;4.00;99.90
33255;DHT22;19623;52.482;9.762;2023-04-03T08:18:22;4.00;99.90
33255;DHT22;19623;52.482;9.762;2023-04-03T08:20:50;4.20;99.90
33255;DHT22;19623;52.482;9.762;2023-04-03T08:23:17;4.20;99.90
33255;DHT22;19623;52.482;9.762;2023-04-03T08:25:42;4.30;99.90
33255;DHT22;19623;52.482;9.762;2023-04-03T08:28:09;4.40;99.90
33255;DHT22;19623;52.482;9.762;2023-04-03T08:30:35;4.50;99.90
33255;DHT22;19623;52.482;9.762;2023-04-03T08:33:01;4.60;99.90
33255;DHT22;19623;52.482;9.762;2023-04-03T08:35:27;4.70;99.90
33255;DHT22;19623;52.482;9.762;2023-04-03T08:37:53;4.60;99.90
33255;DHT22;19623;52.482;9.762;2023-04-03T08:40:19;4.70;99.90
33255;DHT22;19623;52.482;9.762;2023-04-03T08:42:57;4.90;99.90
33255;DHT22;19623;52.482;9.762;2023-04-03T08:48:15;5.10;99.90
33255;DHT22;19623;52.482;9.762;2023-04-03T08:50:49;5.10;99.90
33255;DHT22;19623;52.482;9.762;2023-04-03T08:53:16;5.20;99.90
33255;DHT22;19623;52.482;9.762;2023-04-03T08:55:47;5.30;99.90
33255;DHT22;19623;52.482;9.762;2023-04-03T08:58:26;5.40;99.90
33255;DHT22;19623;52.482;9.762;2023-04-03T09:03:36;5.60;99.90
33255;DHT22;19623;52.482;9.762;2023-04-03T09:06:04;5.70;99.90
33255;DHT22;19623;52.482;9.762;2023-04-03T09:08:35;5.90;99.90
33255;DHT22;19623;52.482;9.762;2023-04-03T09:13:43;6.10;99.90
33255;DHT22;19623;52.482;9.762;2023-04-03T09:16:33;6.10;99.90
33255;DHT22;19623;52.482;9.762;2023-04-03T09:21:37;6.10;99.90
33255;DHT22;19623;52.482;9.762;2023-04-03T09:24:04;6.00;99.90
33255;DHT22;19623;52.482;9.762;2023-04-03T09:26:34;6.20;99.90
33255;DHT22;19623;52.482;9.762;2023-04-03T09:29:02;6.50;99.90
33255;DHT22;19623;52.482;9.762;2023-04-03T09:31:35;6.90;99.90
33255;DHT22;19623;52.482;9.762;2023-04-03T09:34:02;7.00;99.90
33255;DHT22;19623;52.482;9.762;2023-04-03T09:36:38;7.10;99.90
33255;DHT22;19623;52.482;9.762;2023-04-03T09:39:05;7.20;99.90
33255;DHT22;19623;52.482;9.762;2023-04-03T09:41:33;7.20;99.90
33255;DHT22;19623;52.482;9.762;2023-04-03T09:43:59;7.30;99.90
33255;DHT22;19623;52.482;9.762;2023-04-03T09:46:31;7.40;99.90
33255;DHT22;19623;52.482;9.762;2023-04-03T09:48:58;7.70;99.90
33255;DHT22;19623;52.482;9.762;2023-04-03T09:51:24;7.90;99.90
33255;DHT22;19623;52.482;9.762;2023-04-03T09:53:52;8.00;99.90
33255;DHT22;19623;52.482;9.762;2023-04-03T09:58:51;8.00;99.90
33255;DHT22;19623;52.482;9.762;2023-04-03T10:01:27;7.70;99.90
33255;DHT22;19623;52.482;9.762;2023-04-03T10:04:02;7.50;99.90
33255;DHT22;19623;52.482;9.762;2023-04-03T10:06:29;7.50;99.90
33255;DHT22;19623;52.482;9.762;2023-04-03T10:08:59;7.50;99.90
33255;DHT22;19623;52.482;9.762;2023-04-03T10:11:26;7.10;99.90
33255;DHT22;19623;52.482;9.762;2023-04-03T10:13:56;6.80;99.90
33255;DHT22;19623;52.482;9.762;2023-04-03T10:16:23;6.90;99.90
33255;DHT22;19623;52.482;9.762;2023-04-03T10:19:02;6.90;99.90
33255;DHT22;19623;52.482;9.762;2023-04-03T10:21:32;7.00;99.90
33255;DHT22;19623;52.482;9.762;2023-04-03T10:24:11;7.00;99.90
33255;DHT22;19623;52.482;9.762;2023-04-03T10:26:59;7.30;99.90
33255;DHT22;19623;52.482;9.762;2023-04-03T10:31:58;8.30;99.90
33255;DHT22;19623;52.482;9.762;2023-04-03T10:34:30;8.50;99.90
33255;DHT22;19623;52.482;9.762;2023-04-03T10:52:20;8.20;99.90
33255;DHT22;19623;52.482;9.762;2023-04-03T10:55:30;8.10;99.90
33255;DHT22;19623;52.482;9.762;2023-04-03T10:57:36;8.10;99.90
33255;DHT22;19623;52.482;9.762;2023-04-03T11:00:04;8.40;99.90
33255;DHT22;19623;52.482;9.762;2023-04-03T11:02:33;8.50;99.90
33255;DHT22;19623;52.482;9.762;2023-04-03T11:05:07;8.80;99.90
33255;DHT22;19623;52.482;9.762;2023-04-03T11:07:40;9.00;99.90
33255;DHT22;19623;52.482;9.762;2023-04-03T11:10:15;9.00;99.90
33255;DHT22;19623;52.482;9.762;2023-04-03T11:12:46;9.10;99.90
33255;DHT22;19623;52.482;9.762;2023-04-03T11:15:15;9.10;99.90
33255;DHT22;19623;52.482;9.762;2023-04-03T11:17:51;9.30;99.90
33255;DHT22;19623;52.482;9.762;2023-04-03T11:20:20;9.50;99.90
33255;DHT22;19623;52.482;9.762;2023-04-03T11:23:06;9.70;99.90
33255;DHT22;19623;52.482;9.762;2023-04-03T11:25:35;9.40;99.90
33255;DHT22;19623;52.482;9.762;2023-04-03T11:28:06;9.40;99.90
33255;DHT22;19623;52.482;9.762;2023-04-03T11:35:48;9.60;99.90
33255;DHT22;19623;52.482;9.762;2023-04-03T11:38:26;9.70;99.90
33255;DHT22;19623;52.482;9.762;2023-04-03T11:40:55;9.80;99.90
33255;DHT22;19623;52.482;9.762;2023-04-03T11:43:25;9.80;99.90
33255;DHT22;19623;52.482;9.762;2023-04-03T11:46:12;9.90;99.90
33255;DHT22;19623;52.482;9.762;2023-04-03T11:51:37;9.90;99.90
33255;DHT22;19623;52.482;9.762;2023-04-03T11:53:47;9.70;99.90
33255;DHT22;19623;52.482;9.762;2023-04-03T12:01:46;9.50;99.90
33255;DHT22;19623;52.482;9.762;2023-04-03T12:04:12;9.30;99.90
33255;DHT22;19623;52.482;9.762;2023-04-03T12:09:25;9.50;99.90
33255;DHT22;19623;52.482;9.762;2023-04-03T12:11:51;9.20;99.90
33255;DHT22;19623;52.482;9.762;2023-04-03T12:14:17;8.80;99.90
33255;DHT22;19623;52.482;9.762;2023-04-03T12:16:45;8.60;99.90
33255;DHT22;19623;52.482;9.762;2023-04-03T12:26:44;8.90;99.90
33255;DHT22;19623;52.482;9.762;2023-04-03T12:45:44;9.60;99.90
33255;DHT22;19623;52.482;9.762;2023-04-03T12:48:16;9.70;99.90
33255;DHT22;19623;52.482;9.762;2023-04-03T12:50:43;9.90;99.90
33255;DHT22;19623;52.482;9.762;2023-04-03T12:53:21;10.00;99.90
33255;DHT22;19623;52.482;9.762;2023-04-03T12:55:49;9.70;99.90
33255;DHT22;19623;52.482;9.762;2023-04-03T12:58:27;9.50;99.90
33255;DHT22;19623;52.482;9.762;2023-04-03T13:01:03;9.40;99.90
33255;DHT22;19623;52.482;9.762;2023-04-03T13:03:28;9.70;99.90
33255;DHT22;19623;52.482;9.762;2023-04-03T13:05:58;9.80;99.90
33255;DHT22;19623;52.482;9.762;2023-04-03T13:08:24;9.80;99.90
33255;DHT22;19623;52.482;9.762;2023-04-03T13:10:51;9.50;99.90
33255;DHT22;19623;52.482;9.762;2023-04-03T13:13:18;9.20;99.90
33255;DHT22;19623;52.482;9.762;2023-04-03T13:15:45;9.20;99.90
33255;DHT22;19623;52.482;9.762;2023-04-03T13:21:10;9.50;99.90
33255;DHT22;19623;52.482;9.762;2023-04-03T13:23:40;9.80;99.90
33255;DHT22;19623;52.482;9.762;2023-04-03T13:26:07;10.00;99.90
33255;DHT22;19623;52.482;9.762;2023-04-03T13:28:33;10.20;99.90
33255;DHT22;19623;52.482;9.762;2023-04-03T13:31:01;10.20;99.90
33255;DHT22;19623;52.482;9.762;2023-04-03T13:33:28;10.40;99.90
33255;DHT22;19623;52.482;9.762;2023-04-03T13:35:58;10.40;99.90
33255;DHT22;19623;52.482;9.762;2023-04-03T13:38:26;10.30;99.90
33255;DHT22;19623;52.482;9.762;2023-04-03T13:40:53;10.50;99.90
33255;DHT22;19623;52.482;9.762;2023-04-03T13:43:21;10.40;99.90
33255;DHT22;19623;52.482;9.762;2023-04-03T13:48:36;10.10;99.90
33255;DHT22;19623;52.482;9.762;2023-04-03T13:53:34;9.90;99.90
33255;DHT22;19623;52.482;9.762;2023-04-03T13:56:07;9.70;99.90
33255;DHT22;19623;52.482;9.762;2023-04-03T13:58:33;9.70;99.90
33255;DHT22;19623;52.482;9.762;2023-04-03T14:01:16;9.70;99.90
33255;DHT22;19623;52.482;9.762;2023-04-03T14:03:43;9.40;99.90
33255;DHT22;19623;52.482;9.762;2023-04-03T14:06:11;8.90;99.90
33255;DHT22;19623;52.482;9.762;2023-04-03T14:08:38;8.80;99.90
33255;DHT22;19623;52.482;9.762;2023-04-03T14:11:04;8.70;99.90
33255;DHT22;19623;52.482;9.762;2023-04-03T14:13:30;8.70;99.90
33255;DHT22;19623;52.482;9.762;2023-04-03T14:15:56;8.90;99.90
33255;DHT22;19623;52.482;9.762;2023-04-03T14:18:22;8.90;99.90
33255;DHT22;19623;52.482;9.762;2023-04-03T14:20:48;8.90;99.90
33255;DHT22;19623;52.482;9.762;2023-04-03T14:23:14;9.00;99.90
33255;DHT22;19623;52.482;9.762;2023-04-03T14:25:40;9.20;99.90
33255;DHT22;19623;52.482;9.762;2023-04-03T14:28:12;9.20;99.90
33255;DHT22;19623;52.482;9.762;2023-04-03T14:30:39;9.40;99.90
33255;DHT22;19623;52.482;9.762;2023-04-03T14:33:05;9.30;99.90
33255;DHT22;19623;52.482;9.762;2023-04-03T14:35:31;9.10;99.90
33255;DHT22;19623;52.482;9.762;2023-04-03T14:37:57;8.90;99.90
33255;DHT22;19623;52.482;9.762;2023-04-03T14:40:25;8.50;99.90
33255;DHT22;19623;52.482;9.762;2023-04-03T14:42:51;8.20;99.90
33255;DHT22;19623;52.482;9.762;2023-04-03T14:45:20;8.20;99.90
33255;DHT22;19623;52.482;9.762;2023-04-03T14:47:47;8.20;99.90
33255;DHT22;19623;52.482;9.762;2023-04-03T14:50:15;8.40;99.90
33255;DHT22;19623;52.482;9.762;2023-04-03T14:52:41;8.50;99.90
33255;DHT22;19623;52.482;9.762;2023-04-03T14:55:07;8.80;99.90
33255;DHT22;19623;52.482;9.762;2023-04-03T14:57:33;9.20;99.90
33255;DHT22;19623;52.482;9.762;2023-04-03T14:59:59;9.40;99.90
33255;DHT22;19623;52.482;9.762;2023-04-03T15:02:30;9.70;99.90
33255;DHT22;19623;52.482;9.762;2023-04-03T15:04:56;10.00;99.90
33255;DHT22;19623;52.482;9.762;2023-04-03T15:07:23;9.80;99.90
33255;DHT22;19623;52.482;9.762;2023-04-03T15:09:49;9.40;99.90
33255;DHT22;19623;52.482;9.762;2023-04-03T15:12:15;9.20;99.90
33255;DHT22;19623;52.482;9.762;2023-04-03T15:14:41;8.90;99.90
33255;DHT22;19623;52.482;9.762;2023-04-03T15:17:08;8.80;99.90
33255;DHT22;19623;52.482;9.762;2023-04-03T15:19:37;8.80;99.90
33255;DHT22;19623;52.482;9.762;2023-04-03T15:22:02;8.70;99.90
33255;DHT22;19623;52.482;9.762;2023-04-03T15:24:28;8.60;99.90
33255;DHT22;19623;52.482;9.762;2023-04-03T15:26:54;8.60;99.90
33255;DHT22;19623;52.482;9.762;2023-04-03T15:29:19;8.60;99.90
33255;DHT22;19623;52.482;9.762;2023-04-03T15:31:45;8.60;99.90
33255;DHT22;19623;52.482;9.762;2023-04-03T15:34:10;8.60;99.90
33255;DHT22;19623;52.482;9.762;2023-04-03T15:36:36;8.40;99.90
33255;DHT22;19623;52.482;9.762;2023-04-03T15:39:02;8.40;99.90
33255;DHT22;19623;52.482;9.762;2023-04-03T15:41:27;8.40;99.90
33255;DHT22;19623;52.482;9.762;2023-04-03T15:43:53;8.50;99.90
33255;DHT22;19623;52.482;9.762;2023-04-03T15:46:18;8.50;99.90
33255;DHT22;19623;52.482;9.762;2023-04-03T15:48:44;8.40;99.90
33255;DHT22;19623;52.482;9.762;2023-04-03T15:51:10;8.30;99.90
33255;DHT22;19623;52.482;9.762;2023-04-03T15:53:35;8.20;99.90
33255;DHT22;19623;52.482;9.762;2023-04-03T15:56:01;8.20;99.90
33255;DHT22;19623;52.482;9.762;2023-04-03T15:58:27;8.20;99.90
33255;DHT22;19623;52.482;9.762;2023-04-03T16:00:52;8.30;99.90
33255;DHT22;19623;52.482;9.762;2023-04-03T16:03:18;8.30;99.90
33255;DHT22;19623;52.482;9.762;2023-04-03T16:05:45;8.40;99.90
33255;DHT22;19623;52.482;9.762;2023-04-03T16:08:10;8.40;99.90
33255;DHT22;19623;52.482;9.762;2023-04-03T16:10:37;8.40;99.90
33255;DHT22;19623;52.482;9.762;2023-04-03T16:13:03;8.40;99.90
33255;DHT22;19623;52.482;9.762;2023-04-03T16:15:29;8.50;99.90
33255;DHT22;19623;52.482;9.762;2023-04-03T16:17:56;8.60;99.90
33255;DHT22;19623;52.482;9.762;2023-04-03T16:20:23;8.70;99.90
33255;DHT22;19623;52.482;9.762;2023-04-03T16:22:49;8.30;99.90
33255;DHT22;19623;52.482;9.762;2023-04-03T16:25:15;8.00;99.90
33255;DHT22;19623;52.482;9.762;2023-04-03T16:27:40;7.80;99.90
33255;DHT22;19623;52.482;9.762;2023-04-03T16:30:06;7.60;99.90
33255;DHT22;19623;52.482;9.762;2023-04-03T16:32:32;7.50;99.90
33255;DHT22;19623;52.482;9.762;2023-04-03T16:34:58;7.40;99.90
33255;DHT22;19623;52.482;9.762;2023-04-03T16:37:24;7.50;99.90
33255;DHT22;19623;52.482;9.762;2023-04-03T16:39:50;7.60;99.90
33255;DHT22;19623;52.482;9.762;2023-04-03T16:42:16;7.70;99.90
33255;DHT22;19623;52.482;9.762;2023-04-03T16:44:41;7.80;99.90
33255;DHT22;19623;52.482;9.762;2023-04-03T16:47:07;7.90;99.90
33255;DHT22;19623;52.482;9.762;2023-04-03T16:49:33;8.00;99.90
33255;DHT22;19623;52.482;9.762;2023-04-03T16:51:59;8.10;99.90
33255;DHT22;19623;52.482;9.762;2023-04-03T16:54:26;8.30;99.90
33255;DHT22;19623;52.482;9.762;2023-04-03T16:56:52;8.40;99.90
33255;DHT22;19623;52.482;9.762;2023-04-03T16:59:17;8.30;99.90
33255;DHT22;19623;52.482;9.762;2023-04-03T17:01:44;8.30;99.90
33255;DHT22;19623;52.482;9.762;2023-04-03T17:04:10;8.20;99.90
33255;DHT22;19623;52.482;9.762;2023-04-03T17:06:35;8.00;99.90
33255;DHT22;19623;52.482;9.762;2023-04-03T17:09:01;7.80;99.90